createdAt,value
2023-05-06T00:00:00.280Z,10.34
2023-05-06T00:02:31.248Z,10.01
2023-05-06T00:05:04.194Z,9.94
2023-05-06T00:07:35.308Z,10.02
2023-05-06T00:10:08.595Z,9.74
2023-05-06T00:12:39.579Z,9.97
2023-05-06T00:15:13.647Z,9.91
2023-05-06T00:17:44.286Z,9.81
2023-05-06T00:20:15.690Z,10.00
2023-05-06T00:22:46.246Z,10.15
2023-05-06T00:25:18.463Z,10.09
2023-05-06T00:27:48.947Z,9.89
2023-05-06T00:30:19.512Z,9.93
2023-05-06T00:32:50.030Z,9.40
2023-05-06T00:35:20.794Z,9.44
2023-05-06T00:37:58.741Z,9.20
2023-05-06T00:40:30.925Z,9.79
2023-05-06T00:43:01.385Z,10.11
2023-05-06T00:45:32.018Z,10.15
2023-05-06T00:48:02.657Z,10.41
2023-05-06T00:50:34.131Z,10.62
2023-05-06T00:53:06.789Z,10.68
2023-05-06T00:55:39.214Z,10.70
2023-05-06T00:58:10.101Z,10.29
2023-05-06T01:00:41.050Z,10.49
2023-05-06T01:03:11.602Z,10.53
2023-05-06T01:05:54.036Z,10.45
2023-05-06T01:08:32.407Z,10.78
2023-05-06T01:11:13.508Z,11.05
2023-05-06T01:13:51.386Z,10.78
2023-05-06T01:16:26.256Z,11.03
2023-05-06T01:18:58.658Z,11.51
2023-05-06T01:21:36.102Z,11.45
2023-05-06T01:24:08.723Z,11.18
2023-05-06T01:26:43.283Z,11.39
2023-05-06T01:29:17.756Z,11.20
2023-05-06T01:31:53.855Z,11.04
2023-05-06T01:34:30.950Z,10.98
2023-05-06T01:37:10.481Z,10.71
2023-05-06T01:39:44.293Z,10.49
2023-05-06T01:42:16.730Z,10.71
2023-05-06T01:44:47.660Z,11.09
2023-05-06T01:47:19.925Z,11.48
2023-05-06T01:49:51.163Z,11.53
2023-05-06T01:52:23.381Z,11.76
2023-05-06T01:54:55.538Z,11.53
2023-05-06T01:57:25.961Z,11.21
2023-05-06T01:59:56.636Z,11.01
2023-05-06T02:02:27.250Z,10.99
2023-05-06T02:04:57.764Z,11.02
2023-05-06T02:07:28.246Z,10.84
2023-05-06T02:10:00.628Z,10.71
2023-05-06T02:12:31.117Z,10.75
2023-05-06T02:15:01.660Z,10.91
2023-05-06T02:17:32.195Z,10.74
2023-05-06T02:20:02.611Z,10.69
2023-05-06T02:22:33.074Z,10.55
2023-05-06T02:25:05.165Z,10.83
2023-05-06T02:27:35.585Z,10.92
2023-05-06T02:30:06.158Z,11.24
2023-05-06T02:32:36.942Z,11.56
2023-05-06T02:35:08.401Z,11.66
2023-05-06T02:37:39.034Z,11.94
2023-05-06T02:40:12.287Z,11.94
2023-05-06T02:42:42.891Z,11.86
2023-05-06T02:45:14.294Z,11.82
2023-05-06T02:47:44.942Z,11.60
2023-05-06T02:50:15.463Z,11.50
2023-05-06T02:52:49.079Z,11.29
2023-05-06T02:55:21.449Z,10.95
2023-05-06T02:57:51.896Z,10.86
2023-05-06T03:00:23.155Z,10.77
2023-05-06T03:02:53.766Z,10.87
2023-05-06T03:05:24.336Z,10.76
2023-05-06T03:07:54.827Z,11.05
2023-05-06T03:10:27.026Z,11.22
2023-05-06T03:12:57.513Z,11.42
2023-05-06T03:15:28.126Z,11.47
2023-05-06T03:17:58.611Z,11.50
2023-05-06T03:20:29.732Z,11.80
2023-05-06T03:23:00.197Z,12.02
2023-05-06T03:25:32.467Z,11.95
2023-05-06T03:28:02.923Z,11.59
2023-05-06T03:30:33.434Z,11.41
2023-05-06T03:33:04.679Z,11.27
2023-05-06T03:35:35.330Z,11.11
2023-05-06T03:38:05.852Z,11.04
2023-05-06T03:40:38.232Z,10.91
2023-05-06T03:43:08.646Z,10.83
2023-05-06T03:45:39.854Z,10.68
2023-05-06T03:48:10.435Z,10.69
2023-05-06T03:50:41.190Z,10.94
2023-05-06T03:53:11.854Z,10.98
2023-05-06T03:55:44.440Z,10.69
2023-05-06T03:58:15.042Z,10.88
2023-05-06T04:00:45.478Z,10.95
2023-05-06T04:03:16.097Z,11.23
2023-05-06T04:05:46.661Z,11.22
2023-05-06T04:08:18.033Z,10.63
2023-05-06T04:10:50.171Z,10.99
2023-05-06T04:13:20.679Z,11.02
2023-05-06T04:15:52.184Z,10.88
2023-05-06T04:18:23.215Z,11.20
2023-05-06T04:20:53.577Z,11.25
2023-05-06T04:23:24.301Z,11.13
2023-05-06T04:25:56.653Z,10.94
2023-05-06T04:28:27.222Z,11.04
2023-05-06T04:30:57.719Z,10.70
2023-05-06T04:33:28.306Z,10.97
2023-05-06T04:35:58.886Z,10.90
2023-05-06T04:38:32.702Z,10.75
2023-05-06T04:41:04.829Z,10.60
2023-05-06T04:43:35.325Z,10.70
2023-05-06T04:46:05.833Z,10.84
2023-05-06T04:48:36.363Z,11.20
2023-05-06T04:51:07.355Z,11.36
2023-05-06T04:53:38.195Z,11.88
2023-05-06T04:56:10.822Z,12.08
2023-05-06T04:58:41.192Z,11.95
2023-05-06T05:01:12.561Z,11.34
2023-05-06T05:03:43.195Z,11.26
2023-05-06T05:06:14.223Z,11.22
2023-05-06T05:08:44.953Z,11.17
2023-05-06T05:11:17.371Z,11.13
2023-05-06T05:13:48.050Z,11.25
2023-05-06T05:16:18.601Z,11.41
2023-05-06T05:18:49.144Z,11.76
2023-05-06T05:21:19.629Z,11.51
2023-05-06T05:23:50.270Z,11.66
2023-05-06T05:26:22.717Z,11.84
2023-05-06T05:28:53.162Z,11.96
2023-05-06T05:31:23.712Z,11.64
2023-05-06T05:33:54.460Z,11.48
2023-05-06T05:36:28.550Z,11.54
2023-05-06T05:38:59.762Z,11.56
2023-05-06T05:41:38.710Z,11.82
2023-05-06T05:44:09.660Z,11.84
2023-05-06T05:46:40.247Z,11.73
2023-05-06T05:49:10.777Z,11.41
2023-05-06T05:51:41.315Z,11.50
2023-05-06T05:54:11.808Z,11.41
2023-05-06T05:56:43.970Z,11.28
2023-05-06T05:59:14.351Z,12.00
2023-05-06T06:01:44.724Z,12.03
2023-05-06T06:04:15.244Z,12.05
2023-05-06T06:06:45.776Z,12.05
2023-05-06T06:09:17.614Z,11.85
2023-05-06T06:11:49.819Z,11.85
2023-05-06T06:14:20.369Z,11.79
2023-05-06T06:17:06.603Z,11.60
2023-05-06T06:19:37.050Z,11.56
2023-05-06T06:22:07.479Z,11.48
2023-05-06T06:24:38.021Z,11.33
2023-05-06T06:27:10.492Z,11.70
2023-05-06T06:29:41.102Z,12.18
2023-05-06T06:32:11.627Z,12.72
2023-05-06T06:34:42.169Z,13.09
2023-05-06T06:37:13.625Z,13.16
2023-05-06T06:39:44.167Z,12.97
2023-05-06T06:42:16.972Z,12.64
2023-05-06T06:44:47.555Z,12.82
2023-05-06T06:47:18.108Z,12.95
2023-05-06T06:49:48.705Z,12.93
2023-05-06T06:52:19.244Z,12.95
2023-05-06T06:54:49.894Z,12.81
2023-05-06T06:57:22.139Z,12.87
2023-05-06T06:59:54.529Z,12.93
2023-05-06T07:02:25.049Z,12.60
2023-05-06T07:04:55.986Z,12.86
2023-05-06T07:07:26.532Z,12.71
2023-05-06T07:10:13.582Z,12.79
2023-05-06T07:12:45.723Z,12.56
2023-05-06T07:15:16.243Z,12.29
2023-05-06T07:17:46.829Z,12.24
2023-05-06T07:20:17.334Z,12.21
2023-05-06T07:22:50.427Z,12.14
2023-05-06T07:25:21.031Z,12.07
2023-05-06T07:27:53.161Z,12.08
2023-05-06T07:30:23.672Z,12.15
2023-05-06T07:32:54.301Z,12.10
2023-05-06T07:35:24.933Z,12.26
2023-05-06T07:37:55.393Z,12.30
2023-05-06T07:40:26.027Z,12.15
2023-05-06T07:42:58.179Z,11.96
2023-05-06T07:45:28.708Z,12.00
2023-05-06T07:47:59.371Z,12.02
2023-05-06T07:50:29.889Z,11.98
2023-05-06T07:53:00.995Z,11.90
2023-05-06T07:55:33.826Z,11.85
2023-05-06T07:58:07.134Z,11.81
2023-05-06T08:00:37.648Z,11.82
2023-05-06T08:03:08.351Z,11.74
2023-05-06T08:05:39.081Z,11.59
2023-05-06T08:08:09.607Z,11.59
2023-05-06T08:10:40.121Z,11.52
2023-05-06T08:13:12.528Z,11.45
2023-05-06T08:15:43.527Z,11.44
2023-05-06T08:18:21.867Z,11.50
2023-05-06T08:20:53.183Z,11.49
2023-05-06T08:23:24.007Z,11.44
2023-05-06T08:25:54.578Z,11.40
2023-05-06T08:28:26.809Z,11.45
2023-05-06T08:30:57.367Z,11.26
2023-05-06T08:33:28.096Z,11.19
2023-05-06T08:35:58.933Z,11.13
2023-05-06T08:38:29.747Z,11.14
2023-05-06T08:41:02.895Z,10.93
2023-05-06T08:43:38.028Z,10.85
2023-05-06T08:46:08.799Z,10.83
2023-05-06T08:48:39.719Z,10.74
2023-05-06T08:51:10.917Z,10.72
2023-05-06T08:53:45.181Z,10.72
2023-05-06T08:56:17.756Z,10.32
2023-05-06T08:58:51.542Z,10.55
2023-05-06T09:01:23.089Z,10.45
2023-05-06T09:03:54.280Z,10.39
2023-05-06T09:06:29.304Z,10.00
2023-05-06T09:08:59.913Z,10.08
2023-05-06T09:11:32.705Z,9.92
2023-05-06T09:14:22.337Z,9.82
2023-05-06T09:16:53.813Z,9.73
2023-05-06T09:19:26.553Z,9.54
2023-05-06T09:21:57.585Z,9.39
2023-05-06T09:24:28.336Z,9.22
2023-05-06T09:26:59.715Z,8.43
2023-05-06T09:29:31.882Z,8.59
2023-05-06T09:32:11.222Z,8.36
2023-05-06T09:34:42.891Z,8.19
2023-05-06T09:37:13.471Z,8.02
2023-05-06T09:39:43.999Z,7.89
2023-05-06T09:42:15.328Z,7.75
2023-05-06T09:44:47.493Z,7.59
2023-05-06T09:47:18.206Z,7.48
2023-05-06T09:49:48.909Z,7.56
2023-05-06T09:52:20.288Z,7.57
2023-05-06T09:54:52.993Z,7.53
2023-05-06T09:57:25.317Z,7.44
2023-05-06T09:59:58.282Z,7.26
2023-05-06T10:02:30.271Z,7.21
2023-05-06T10:05:05.410Z,7.04
2023-05-06T10:07:36.871Z,7.01
2023-05-06T10:10:09.610Z,6.87
2023-05-06T10:12:40.326Z,6.81
2023-05-06T10:15:13.329Z,6.78
2023-05-06T10:17:48.336Z,6.67
2023-05-06T10:20:20.526Z,6.56
2023-05-06T10:23:02.608Z,6.50
2023-05-06T10:25:43.351Z,6.47
2023-05-06T10:28:24.061Z,6.46
2023-05-06T10:31:03.638Z,6.31
2023-05-06T10:33:34.324Z,6.26
2023-05-06T10:36:16.468Z,6.26
2023-05-06T10:38:50.066Z,6.18
2023-05-06T10:41:24.588Z,6.01
2023-05-06T10:44:00.288Z,5.90
2023-05-06T10:46:41.826Z,5.79
2023-05-06T10:49:21.810Z,5.74
2023-05-06T10:52:11.748Z,5.46
2023-05-06T10:54:55.802Z,5.28
2023-05-06T10:57:33.544Z,5.29
2023-05-06T11:00:06.832Z,5.36
2023-05-06T11:02:41.698Z,5.37
2023-05-06T11:05:14.017Z,5.21
2023-05-06T11:07:46.061Z,5.18
2023-05-06T11:10:17.514Z,5.03
2023-05-06T11:12:51.029Z,4.85
2023-05-06T11:15:29.052Z,4.71
2023-05-06T11:18:02.878Z,4.79
2023-05-06T11:20:34.355Z,4.71
2023-05-06T11:23:06.176Z,4.59
2023-05-06T11:25:44.629Z,4.51
2023-05-06T11:28:17.348Z,4.38
2023-05-06T11:30:58.393Z,4.27
2023-05-06T11:33:35.419Z,4.15
2023-05-06T11:36:07.604Z,3.86
2023-05-06T11:38:46.869Z,3.71
2023-05-06T11:41:18.590Z,3.58
2023-05-06T11:43:51.450Z,3.49
2023-05-06T11:46:23.775Z,2.85
2023-05-06T11:48:57.253Z,3.46
2023-05-06T11:51:28.277Z,3.43
2023-05-06T11:54:08.637Z,3.40
2023-05-06T11:56:55.275Z,3.27
2023-05-06T11:59:33.663Z,3.14
2023-05-06T12:02:06.225Z,2.75
2023-05-06T12:04:46.610Z,2.87
2023-05-06T12:07:18.764Z,2.68
2023-05-06T12:09:52.234Z,2.58
2023-05-06T12:12:27.417Z,2.43
2023-05-06T12:14:59.213Z,2.32
2023-05-06T12:17:30.890Z,1.84
2023-05-06T12:20:04.157Z,2.28
2023-05-06T12:22:34.948Z,2.34
2023-05-06T12:25:17.288Z,2.30
2023-05-06T12:27:49.501Z,2.32
2023-05-06T12:30:32.689Z,2.16
2023-05-06T12:33:07.289Z,2.19
2023-05-06T12:35:39.715Z,2.04
2023-05-06T12:38:15.224Z,1.88
2023-05-06T12:40:46.791Z,1.84
2023-05-06T12:43:17.399Z,1.67
2023-05-06T12:46:05.010Z,1.44
2023-05-06T12:48:35.703Z,1.22
2023-05-06T12:54:01.307Z,1.05
2023-05-06T12:56:34.831Z,1.21
2023-05-06T12:59:06.113Z,0.89
2023-05-06T13:01:40.095Z,1.07
2023-05-06T13:04:11.328Z,0.94
2023-05-06T13:06:41.869Z,0.82
2023-05-06T13:09:15.338Z,0.39
2023-05-06T13:11:47.206Z,0.57
2023-05-06T13:14:19.025Z,0.58
2023-05-06T13:16:49.745Z,0.62
2023-05-06T13:19:31.692Z,0.58
2023-05-06T13:22:03.947Z,0.54
2023-05-06T13:24:36.382Z,0.45
2023-05-06T13:27:07.169Z,0.48
2023-05-06T13:29:38.470Z,0.48
2023-05-06T13:32:09.305Z,0.46
2023-05-06T13:34:40.886Z,0.47
2023-05-06T13:37:11.473Z,0.53
2023-05-06T13:39:44.535Z,0.49
2023-05-06T13:42:15.186Z,0.41
2023-05-06T13:44:45.750Z,0.35
2023-05-06T13:47:16.216Z,0.31
2023-05-06T13:49:46.881Z,0.19
2023-05-06T13:52:17.604Z,0.18
2023-05-06T13:54:49.796Z,0.07
2023-05-06T13:57:20.352Z,0.11
2023-05-06T13:59:50.854Z,0.10
2023-05-06T14:02:23.501Z,0.03
2023-05-06T14:04:54.082Z,-0.01
2023-05-06T14:07:27.209Z,-0.18
2023-05-06T14:10:01.878Z,-0.28
2023-05-06T14:12:40.066Z,-0.31
2023-05-06T14:15:11.287Z,-0.40
2023-05-06T14:17:42.180Z,-0.47
2023-05-06T14:20:13.610Z,-0.58
2023-05-06T14:22:47.466Z,-0.73
2023-05-06T14:25:21.874Z,-0.62
2023-05-06T14:27:57.769Z,-0.76
2023-05-06T14:30:28.567Z,-0.85
2023-05-06T14:33:01.911Z,-0.84
2023-05-06T14:35:32.508Z,-0.83
2023-05-06T14:38:03.049Z,-0.79
2023-05-06T14:40:42.413Z,-0.75
2023-05-06T14:43:12.862Z,-0.76
2023-05-06T14:45:45.729Z,-0.81
2023-05-06T14:48:21.175Z,-0.84
2023-05-06T14:50:57.212Z,-0.93
2023-05-06T14:53:27.774Z,-1.03
2023-05-06T14:55:59.854Z,-1.41
2023-05-06T14:58:32.994Z,-1.28
2023-05-06T15:01:03.570Z,-1.34
2023-05-06T15:03:34.114Z,-1.34
2023-05-06T15:06:06.812Z,-1.33
2023-05-06T15:08:37.939Z,-1.35
2023-05-06T15:11:10.345Z,-1.26
2023-05-06T15:13:42.968Z,-1.22
2023-05-06T15:16:13.908Z,-1.20
2023-05-06T15:18:47.031Z,-1.13
2023-05-06T15:21:18.339Z,-1.10
2023-05-06T15:23:52.645Z,-1.21
2023-05-06T15:26:24.926Z,-1.14
2023-05-06T15:28:55.550Z,-1.08
2023-05-06T15:31:26.286Z,-1.14
2023-05-06T15:33:58.849Z,-1.13
2023-05-06T15:36:31.022Z,-1.36
2023-05-06T15:39:04.745Z,-1.24
2023-05-06T15:41:39.354Z,-1.35
2023-05-06T15:44:15.955Z,-1.50
2023-05-06T15:46:51.702Z,-1.48
2023-05-06T15:49:45.461Z,-1.40
2023-05-06T15:52:14.517Z,-1.54
2023-05-06T15:54:50.961Z,-1.71
2023-05-06T15:57:23.171Z,-1.53
2023-05-06T15:59:53.707Z,-1.52
2023-05-06T16:02:33.157Z,-1.46
2023-05-06T16:05:08.520Z,-1.39
2023-05-06T16:07:41.192Z,-1.38
2023-05-06T16:10:17.736Z,-1.50
2023-05-06T16:12:52.914Z,-1.42
2023-05-06T16:15:23.994Z,-1.38
2023-05-06T16:17:54.652Z,-1.37
2023-05-06T16:20:25.242Z,-1.33
2023-05-06T16:22:56.247Z,-1.32
2023-05-06T16:25:28.948Z,-1.36
2023-05-06T16:28:01.362Z,-1.29
2023-05-06T16:30:32.361Z,-1.31
2023-05-06T16:33:03.065Z,-1.27
2023-05-06T16:35:42.790Z,-1.37
2023-05-06T16:38:19.187Z,-1.00
2023-05-06T16:40:52.110Z,-1.01
2023-05-06T16:43:24.156Z,-1.04
2023-05-06T16:45:57.126Z,-1.06
2023-05-06T16:48:29.520Z,-1.09
2023-05-06T16:51:03.270Z,-1.03
2023-05-06T16:53:36.808Z,-1.10
2023-05-06T16:56:07.655Z,-1.13
2023-05-06T16:58:42.983Z,-1.09
2023-05-06T17:01:13.652Z,-1.16
2023-05-06T17:03:44.376Z,-1.16
2023-05-06T17:06:15.170Z,-1.24
2023-05-06T17:08:45.711Z,-1.18
2023-05-06T17:11:18.110Z,-1.05
2023-05-06T17:13:50.725Z,-0.95
2023-05-06T17:16:24.079Z,-0.84
2023-05-06T17:18:59.068Z,-0.85
2023-05-06T17:21:32.259Z,-0.73
2023-05-06T17:24:05.635Z,-0.79
2023-05-06T17:26:36.867Z,-0.82
2023-05-06T17:29:10.426Z,-0.80
2023-05-06T17:31:45.585Z,-0.82
2023-05-06T17:36:52.895Z,-0.75
2023-05-06T17:39:27.303Z,-0.79
2023-05-06T17:42:02.019Z,-0.86
2023-05-06T17:44:38.270Z,-1.20
2023-05-06T17:47:11.754Z,-0.83
2023-05-06T17:49:44.342Z,-0.90
2023-05-06T17:52:18.646Z,-1.03
2023-05-06T17:55:05.809Z,-1.16
2023-05-06T17:57:46.743Z,-1.23
2023-05-06T18:00:22.188Z,-1.36
2023-05-06T18:02:58.098Z,-1.42
2023-05-06T18:05:28.747Z,-1.41
2023-05-06T18:08:06.496Z,-1.46
2023-05-06T18:10:36.966Z,-1.59
2023-05-06T18:13:14.333Z,-1.62
2023-05-06T18:15:47.796Z,-1.62
2023-05-06T18:18:20.979Z,-1.77
2023-05-06T18:20:55.574Z,-1.90
2023-05-06T18:23:26.039Z,-1.96
2023-05-06T18:25:59.560Z,-2.00
2023-05-06T18:28:29.998Z,-2.09
2023-05-06T18:31:02.232Z,-2.03
2023-05-06T18:33:45.021Z,-2.06
2023-05-06T18:36:20.830Z,-2.20
2023-05-06T18:38:51.940Z,-2.73
2023-05-06T18:41:22.644Z,-2.36
2023-05-06T18:43:53.243Z,-2.45
2023-05-06T18:46:25.473Z,-2.56
2023-05-06T18:48:56.826Z,-2.55
2023-05-06T18:51:27.478Z,-2.59
2023-05-06T18:53:58.025Z,-2.55
2023-05-06T18:56:33.487Z,-2.57
2023-05-06T18:59:04.018Z,-2.53
2023-05-06T19:01:36.225Z,-2.53
2023-05-06T19:04:06.972Z,-2.38
2023-05-06T19:06:39.195Z,-2.43
2023-05-06T19:09:09.638Z,-2.45
2023-05-06T19:11:40.053Z,-2.69
2023-05-06T19:14:10.404Z,-2.53
2023-05-06T19:16:42.646Z,-2.54
2023-05-06T19:19:13.209Z,-2.53
2023-05-06T19:21:43.625Z,-2.54
2023-05-06T19:24:14.083Z,-2.53
2023-05-06T19:26:44.505Z,-2.72
2023-05-06T19:29:15.471Z,-2.53
2023-05-06T19:31:47.661Z,-2.56
2023-05-06T19:34:18.198Z,-2.55
2023-05-06T19:36:48.720Z,-2.50
2023-05-06T19:39:19.246Z,-2.46
2023-05-06T19:41:49.753Z,-2.41
2023-05-06T19:44:20.187Z,-2.31
2023-05-06T19:46:56.419Z,-2.12
2023-05-06T19:49:26.964Z,-1.85
2023-05-06T19:51:57.396Z,-1.56
2023-05-06T19:54:27.827Z,-1.24
2023-05-06T19:56:58.211Z,-0.96
2023-05-06T19:59:28.736Z,-0.72
2023-05-06T20:02:03.130Z,-0.44
2023-05-06T20:04:34.388Z,-0.21
2023-05-06T20:07:07.887Z,0.02
2023-05-06T20:09:38.331Z,0.24
2023-05-06T20:12:09.594Z,0.17
2023-05-06T20:14:40.061Z,0.66
2023-05-06T20:17:12.283Z,0.89
2023-05-06T20:19:42.657Z,0.86
2023-05-06T20:22:13.169Z,0.94
2023-05-06T20:24:45.076Z,1.37
2023-05-06T20:27:15.651Z,1.59
2023-05-06T20:29:46.401Z,1.84
2023-05-06T20:32:18.732Z,1.97
2023-05-06T20:34:49.333Z,2.23
2023-05-06T20:37:20.914Z,2.13
2023-05-06T20:39:51.320Z,2.51
2023-05-06T20:42:22.709Z,2.70
2023-05-06T20:44:54.183Z,2.86
2023-05-06T20:47:26.382Z,3.31
2023-05-06T20:49:57.573Z,3.59
2023-05-06T20:52:28.285Z,3.87
2023-05-06T20:54:58.939Z,3.96
2023-05-06T20:57:29.527Z,3.94
2023-05-06T21:00:00.087Z,4.00
2023-05-06T21:02:40.026Z,3.95
2023-05-06T21:05:12.793Z,4.08
2023-05-06T21:07:43.621Z,4.21
2023-05-06T21:10:15.239Z,4.46
2023-05-06T21:12:53.323Z,4.45
2023-05-06T21:15:23.847Z,4.21
2023-05-06T21:17:56.059Z,4.44
2023-05-06T21:20:26.570Z,4.72
2023-05-06T21:22:56.949Z,4.96
2023-05-06T21:25:27.726Z,5.00
2023-05-06T21:27:59.238Z,5.12
2023-05-06T21:30:30.133Z,5.13
2023-05-06T21:33:03.167Z,4.96
2023-05-06T21:35:33.829Z,5.10
2023-05-06T21:38:05.888Z,5.34
2023-05-06T21:40:36.343Z,5.45
2023-05-06T21:43:07.029Z,5.55
2023-05-06T21:45:37.488Z,5.50
2023-05-06T21:48:10.102Z,5.78
2023-05-06T21:50:40.793Z,5.92
2023-05-06T21:53:12.269Z,5.94
2023-05-06T21:55:44.870Z,6.00
2023-05-06T21:58:16.089Z,6.18
2023-05-06T22:00:47.088Z,6.37
2023-05-06T22:03:19.244Z,6.56
2023-05-06T22:05:50.064Z,6.77
2023-05-06T22:08:20.626Z,6.80
2023-05-06T22:10:51.242Z,6.88
2023-05-06T22:13:23.553Z,7.12
2023-05-06T22:15:55.470Z,7.42
2023-05-06T22:18:28.822Z,7.29
2023-05-06T22:20:59.517Z,7.27
2023-05-06T22:23:30.053Z,7.40
2023-05-06T22:26:00.608Z,7.54
2023-05-06T22:28:31.186Z,7.74
2023-05-06T22:31:01.780Z,7.95
2023-05-06T22:33:33.845Z,8.07
2023-05-06T22:36:04.305Z,7.90
2023-05-06T22:38:34.825Z,7.93
2023-05-06T22:41:05.305Z,8.07
2023-05-06T22:43:35.779Z,8.24
2023-05-06T22:46:13.009Z,8.24
2023-05-06T22:48:46.064Z,8.51
2023-05-06T22:51:18.190Z,8.75
2023-05-06T22:53:49.321Z,8.90
2023-05-06T22:56:20.705Z,8.89
2023-05-06T22:58:51.274Z,8.91
2023-05-06T23:01:21.893Z,9.02
2023-05-06T23:03:54.033Z,9.11
2023-05-06T23:06:26.570Z,8.79
2023-05-06T23:08:57.156Z,9.38
2023-05-06T23:11:28.021Z,9.45
2023-05-06T23:13:58.524Z,9.69
2023-05-06T23:16:30.282Z,9.88
2023-05-06T23:19:02.630Z,9.52
2023-05-06T23:21:33.286Z,9.65
2023-05-06T23:24:03.823Z,9.85
2023-05-06T23:26:34.303Z,9.62
2023-05-06T23:29:04.768Z,9.97
2023-05-06T23:31:37.514Z,9.85
2023-05-06T23:34:09.732Z,9.74
2023-05-06T23:36:40.245Z,9.98
2023-05-06T23:39:12.389Z,9.98
2023-05-06T23:41:43.068Z,9.89
2023-05-06T23:44:13.563Z,10.11
2023-05-06T23:46:45.046Z,10.05
2023-05-06T23:49:17.609Z,10.10
2023-05-06T23:51:48.091Z,10.27
2023-05-06T23:54:18.532Z,10.37
2023-05-06T23:56:49.061Z,10.28
2023-05-06T23:59:19.465Z,10.74
